createdAt,value
2018-12-12T00:01:07.311Z,63.63
2018-12-12T00:03:36.018Z,60.40
2018-12-12T00:06:04.855Z,64.13
2018-12-12T00:08:33.403Z,59.13
2018-12-12T00:11:02.243Z,64.73
2018-12-12T00:13:31.022Z,63.00
2018-12-12T00:15:59.552Z,64.33
2018-12-12T00:18:28.082Z,65.37
2018-12-12T00:20:56.616Z,63.37
2018-12-12T00:23:25.459Z,64.27
2018-12-12T00:25:54.136Z,62.50
2018-12-12T00:28:22.685Z,63.27
2018-12-12T00:30:51.405Z,65.07
2018-12-12T00:33:20.169Z,65.13
2018-12-12T00:35:49.354Z,59.93
2018-12-12T00:38:17.879Z,57.53
2018-12-12T00:40:46.385Z,57.83
2018-12-12T00:43:15.411Z,57.10
2018-12-12T00:45:43.997Z,56.93
2018-12-12T00:48:12.720Z,59.30
2018-12-12T00:50:41.324Z,56.97
2018-12-12T00:53:10.002Z,59.77
2018-12-12T00:55:38.592Z,61.40
2018-12-12T00:58:07.181Z,57.87
2018-12-12T01:00:35.956Z,58.67
2018-12-12T01:03:04.729Z,56.53
2018-12-12T01:05:34.541Z,58.20
2018-12-12T01:08:03.072Z,56.03
2018-12-12T01:10:32.459Z,58.83
2018-12-12T01:13:01.008Z,57.57
2018-12-12T01:15:29.711Z,53.43
2018-12-12T01:17:58.560Z,55.93
2018-12-12T01:20:28.372Z,53.53
2018-12-12T01:22:56.882Z,58.20
2018-12-12T01:25:25.632Z,52.80
2018-12-12T01:27:54.216Z,56.70
2018-12-12T01:30:22.943Z,57.43
2018-12-12T01:32:51.476Z,58.73
2018-12-12T01:35:23.547Z,54.60
2018-12-12T01:38:08.492Z,50.30
2018-12-12T01:40:37.752Z,54.17
2018-12-12T01:43:06.260Z,55.00
2018-12-12T01:45:34.782Z,52.83
2018-12-12T01:48:03.318Z,52.50
2018-12-12T01:50:32.088Z,53.40
2018-12-12T01:53:00.590Z,52.33
2018-12-12T01:55:29.183Z,49.43
2018-12-12T01:57:57.702Z,54.07
2018-12-12T02:00:26.281Z,52.73
2018-12-12T02:02:54.924Z,55.30
2018-12-12T02:05:23.558Z,51.43
2018-12-12T02:07:52.396Z,50.80
2018-12-12T02:10:20.925Z,53.97
2018-12-12T02:13:00.913Z,56.50
2018-12-12T02:15:29.821Z,53.80
2018-12-12T02:17:58.440Z,48.67
2018-12-12T02:20:27.047Z,48.33
2018-12-12T02:22:56.067Z,50.07
2018-12-12T02:25:24.592Z,49.43
2018-12-12T02:27:53.833Z,52.40
2018-12-12T02:30:22.370Z,48.43
2018-12-12T02:32:51.292Z,52.23
2018-12-12T02:35:19.821Z,49.07
2018-12-12T02:37:48.482Z,49.33
2018-12-12T02:40:17.171Z,47.93
2018-12-12T02:42:46.062Z,54.10
2018-12-12T02:45:14.635Z,49.70
2018-12-12T02:47:43.244Z,53.33
2018-12-12T02:50:11.860Z,50.20
2018-12-12T02:52:40.351Z,52.50
2018-12-12T02:55:08.896Z,46.40
2018-12-12T02:57:37.433Z,49.90
2018-12-12T03:00:08.288Z,51.90
2018-12-12T03:02:37.698Z,47.97
2018-12-12T03:05:06.606Z,46.00
2018-12-12T03:07:35.204Z,48.00
2018-12-12T03:10:03.921Z,41.53
2018-12-12T03:12:32.477Z,45.60
2018-12-12T03:15:01.001Z,34.27
2018-12-12T03:17:29.656Z,44.77
2018-12-12T03:19:58.204Z,29.80
2018-12-12T03:22:26.970Z,32.30
2018-12-12T03:24:55.532Z,30.93
2018-12-12T03:27:24.238Z,26.03
2018-12-12T03:29:52.731Z,27.10
2018-12-12T03:32:21.308Z,33.67
2018-12-12T03:34:49.829Z,61.40
2018-12-12T03:37:18.574Z,59.07
2018-12-12T03:39:47.103Z,64.43
2018-12-12T03:42:15.639Z,64.00
2018-12-12T03:44:44.137Z,67.00
2018-12-12T03:47:12.641Z,60.23
2018-12-12T03:49:41.127Z,62.47
2018-12-12T03:52:09.650Z,58.70
2018-12-12T03:54:38.233Z,60.10
2018-12-12T03:57:06.809Z,59.67
2018-12-12T03:59:35.646Z,59.40
2018-12-12T04:02:04.229Z,63.70
2018-12-12T04:04:32.778Z,59.70
2018-12-12T04:07:01.570Z,59.07
2018-12-12T04:09:30.091Z,55.40
2018-12-12T04:11:58.662Z,55.63
2018-12-12T04:14:27.766Z,49.77
2018-12-12T04:16:56.334Z,45.20
2018-12-12T04:19:25.045Z,46.77
2018-12-12T04:21:53.890Z,45.90
2018-12-12T04:24:24.497Z,51.00
2018-12-12T04:26:53.003Z,47.53
2018-12-12T04:29:21.898Z,47.60
2018-12-12T04:31:50.413Z,47.63
2018-12-12T04:34:18.916Z,46.37
2018-12-12T04:36:47.494Z,48.37
2018-12-12T04:39:16.123Z,50.57
2018-12-12T04:41:44.643Z,45.13
2018-12-12T04:44:13.157Z,44.83
2018-12-12T04:46:41.703Z,45.90
2018-12-12T04:49:10.383Z,49.67
2018-12-12T04:51:39.112Z,46.20
2018-12-12T04:54:07.604Z,45.73
2018-12-12T04:56:36.132Z,49.73
2018-12-12T04:59:05.258Z,49.33
2018-12-12T05:01:34.056Z,47.53
2018-12-12T05:04:02.609Z,46.20
2018-12-12T05:06:31.172Z,42.87
2018-12-12T05:08:59.713Z,41.30
2018-12-12T05:11:28.292Z,39.20
2018-12-12T05:13:56.831Z,37.90
2018-12-12T05:16:25.807Z,39.47
2018-12-12T05:18:54.307Z,38.30
2018-12-12T05:21:22.882Z,38.03
2018-12-12T05:23:51.611Z,38.53
2018-12-12T05:26:20.435Z,37.63
2018-12-12T05:28:48.977Z,37.40
2018-12-12T05:31:17.509Z,36.97
2018-12-12T05:33:46.046Z,38.13
2018-12-12T05:36:14.566Z,37.70
2018-12-12T05:38:43.139Z,40.60
2018-12-12T05:41:11.692Z,34.57
2018-12-12T05:43:40.298Z,35.93
2018-12-12T05:46:08.780Z,38.07
2018-12-12T05:48:37.318Z,37.27
2018-12-12T05:51:05.799Z,36.77
2018-12-12T05:53:34.285Z,39.67
2018-12-12T05:56:02.798Z,39.30
2018-12-12T05:58:31.364Z,40.90
2018-12-12T06:00:59.951Z,38.80
2018-12-12T06:03:28.439Z,38.33
2018-12-12T06:05:56.915Z,39.33
2018-12-12T06:08:25.426Z,34.83
2018-12-12T06:10:54.220Z,34.77
2018-12-12T06:13:22.744Z,35.53
2018-12-12T06:15:51.270Z,32.83
2018-12-12T06:18:19.795Z,32.87
2018-12-12T06:20:48.365Z,37.83
2018-12-12T06:23:17.132Z,35.53
2018-12-12T06:25:46.145Z,35.33
2018-12-12T06:28:14.662Z,35.87
2018-12-12T06:30:43.138Z,35.53
2018-12-12T06:33:11.648Z,36.50
2018-12-12T06:35:40.197Z,34.57
2018-12-12T06:38:08.852Z,33.50
2018-12-12T06:40:37.385Z,34.97
2018-12-12T06:43:05.849Z,35.37
2018-12-12T06:45:34.435Z,36.97
2018-12-12T06:48:03.025Z,37.17
2018-12-12T06:50:31.639Z,41.10
2018-12-12T06:53:00.242Z,37.97
2018-12-12T06:55:28.768Z,36.73
2018-12-12T06:57:57.305Z,40.10
2018-12-12T07:00:25.795Z,40.87
2018-12-12T07:02:54.229Z,40.63
2018-12-12T07:05:22.773Z,42.93
2018-12-12T07:07:51.228Z,45.93
2018-12-12T07:10:19.671Z,43.53
2018-12-12T07:12:48.295Z,42.77
2018-12-12T07:15:16.814Z,42.50
2018-12-12T07:17:45.305Z,42.13
2018-12-12T07:20:13.835Z,38.37
2018-12-12T07:22:43.145Z,40.23
2018-12-12T07:25:12.025Z,41.67
2018-12-12T07:27:40.573Z,42.37
2018-12-12T07:30:09.471Z,41.60
2018-12-12T07:32:37.960Z,41.47
2018-12-12T07:35:06.556Z,44.07
2018-12-12T07:37:35.067Z,44.03
2018-12-12T07:40:03.728Z,44.80
2018-12-12T07:42:32.232Z,43.80
2018-12-12T07:45:00.675Z,44.03
2018-12-12T07:47:29.161Z,58.47
2018-12-12T07:49:57.678Z,73.67
2018-12-12T07:52:26.220Z,66.67
2018-12-12T07:54:54.741Z,63.70
2018-12-12T07:57:23.896Z,62.37
2018-12-12T07:59:52.381Z,58.97
2018-12-12T08:02:22.323Z,59.93
2018-12-12T08:04:50.994Z,48.27
2018-12-12T08:07:19.505Z,59.03
2018-12-12T08:09:48.161Z,62.67
2018-12-12T08:12:17.493Z,52.97
2018-12-12T08:14:46.252Z,46.60
2018-12-12T08:17:14.731Z,42.60
2018-12-12T08:19:43.174Z,49.73
2018-12-12T08:22:11.671Z,45.83
2018-12-12T08:24:40.141Z,42.47
2018-12-12T08:27:08.638Z,40.90
2018-12-12T08:29:37.300Z,46.93
2018-12-12T08:32:05.828Z,46.10
2018-12-12T08:34:34.372Z,50.53
2018-12-12T08:37:02.856Z,46.07
2018-12-12T08:39:31.319Z,57.07
2018-12-12T08:41:59.895Z,54.97
2018-12-12T08:44:28.365Z,48.73
2018-12-12T08:46:56.866Z,39.27
2018-12-12T08:49:26.264Z,34.27
2018-12-12T08:51:55.002Z,41.73
2018-12-12T08:54:23.554Z,41.90
2018-12-12T08:56:52.984Z,39.83
2018-12-12T08:59:21.473Z,49.07
2018-12-12T09:01:50.015Z,44.00
2018-12-12T09:04:18.545Z,45.27
2018-12-12T09:06:47.016Z,42.93
2018-12-12T09:09:15.486Z,41.87
2018-12-12T09:11:44.030Z,39.63
2018-12-12T09:14:12.492Z,38.53
2018-12-12T09:16:41.301Z,37.07
2018-12-12T09:19:09.905Z,50.23
2018-12-12T09:21:38.459Z,47.83
2018-12-12T09:24:06.979Z,50.23
2018-12-12T09:26:35.470Z,46.97
2018-12-12T09:29:04.005Z,46.33
2018-12-12T09:31:33.039Z,47.23
2018-12-12T09:34:01.542Z,44.37
2018-12-12T09:36:29.998Z,43.47
2018-12-12T09:38:58.439Z,43.63
2018-12-12T09:41:27.080Z,42.60
2018-12-12T09:43:55.552Z,43.20
2018-12-12T09:46:24.385Z,44.40
2018-12-12T09:48:53.133Z,42.13
2018-12-12T09:51:21.640Z,36.80
2018-12-12T09:53:50.245Z,39.83
2018-12-12T09:56:18.692Z,40.17
2018-12-12T09:58:47.152Z,39.37
2018-12-12T10:01:15.747Z,41.53
2018-12-12T10:03:44.219Z,44.40
2018-12-12T10:06:12.744Z,53.60
2018-12-12T10:08:41.231Z,58.73
2018-12-12T10:11:09.724Z,56.60
2018-12-12T10:13:38.267Z,47.40
2018-12-12T10:16:06.793Z,40.80
2018-12-12T10:18:35.477Z,36.27
2018-12-12T10:21:03.961Z,39.40
2018-12-12T10:23:32.454Z,37.97
2018-12-12T10:26:00.966Z,39.63
2018-12-12T10:28:29.497Z,39.03
2018-12-12T10:30:58.034Z,37.87
2018-12-12T10:33:26.513Z,41.43
2018-12-12T10:35:54.971Z,37.53
2018-12-12T10:38:23.432Z,43.07
2018-12-12T10:40:51.931Z,40.00
2018-12-12T10:43:20.410Z,34.70
2018-12-12T10:45:48.936Z,34.17
2018-12-12T10:48:17.411Z,33.43
2018-12-12T10:50:45.998Z,34.60
2018-12-12T10:53:14.664Z,35.27
2018-12-12T10:55:43.179Z,36.30
2018-12-12T10:58:11.635Z,33.63
2018-12-12T11:00:42.377Z,31.20
2018-12-12T11:03:16.423Z,34.73
2018-12-12T11:05:44.885Z,35.40
2018-12-12T11:08:13.736Z,34.53
2018-12-12T11:10:42.624Z,35.47
2018-12-12T11:13:11.126Z,33.20
2018-12-12T11:15:40.115Z,35.63
2018-12-12T11:18:08.607Z,35.53
2018-12-12T11:20:37.070Z,34.60
2018-12-12T11:23:05.635Z,34.33
2018-12-12T11:25:34.436Z,31.57
2018-12-12T11:28:03.119Z,34.40
2018-12-12T11:30:32.009Z,31.37
2018-12-12T11:33:00.493Z,31.77
2018-12-12T11:35:28.980Z,32.87
2018-12-12T11:37:57.660Z,31.00
2018-12-12T11:40:26.167Z,35.07
2018-12-12T11:42:54.871Z,37.57
2018-12-12T11:45:23.617Z,37.87
2018-12-12T11:47:52.268Z,38.73
2018-12-12T11:50:21.100Z,36.80
2018-12-12T11:52:49.556Z,34.10
2018-12-12T11:55:18.044Z,33.67
2018-12-12T11:57:46.836Z,33.97
2018-12-12T12:00:15.435Z,36.00
2018-12-12T12:02:43.939Z,46.23
2018-12-12T12:05:12.437Z,46.27
2018-12-12T12:07:40.979Z,45.57
2018-12-12T12:10:10.917Z,41.53
2018-12-12T12:12:39.466Z,37.07
2018-12-12T12:15:08.883Z,38.00
2018-12-12T12:17:37.518Z,42.47
2018-12-12T12:20:06.837Z,42.70
2018-12-12T12:22:35.327Z,51.07
2018-12-12T12:25:04.430Z,48.33
2018-12-12T12:27:32.935Z,42.57
2018-12-12T12:30:01.411Z,44.43
2018-12-12T12:32:29.906Z,56.00
2018-12-12T12:34:58.498Z,51.47
2018-12-12T12:37:27.005Z,43.87
2018-12-12T12:39:55.479Z,42.60
2018-12-12T12:42:23.945Z,75.00
2018-12-12T12:44:52.417Z,99.13
2018-12-12T12:47:21.017Z,64.07
2018-12-12T12:49:49.500Z,47.83
2018-12-12T12:52:17.999Z,34.83
2018-12-12T12:54:46.535Z,36.90
2018-12-12T12:57:15.174Z,39.63
2018-12-12T12:59:43.902Z,41.70
2018-12-12T13:02:12.498Z,47.93
2018-12-12T13:04:41.053Z,35.63
2018-12-12T13:07:09.676Z,35.17
2018-12-12T13:09:38.923Z,48.20
2018-12-12T13:12:07.720Z,51.17
2018-12-12T13:14:36.500Z,46.83
2018-12-12T13:17:05.285Z,47.23
2018-12-12T13:19:33.807Z,45.53
2018-12-12T13:22:02.342Z,44.80
2018-12-12T13:24:30.878Z,43.67
2018-12-12T13:26:59.452Z,39.40
2018-12-12T13:29:27.909Z,33.97
2018-12-12T13:31:56.426Z,34.60
2018-12-12T13:34:24.893Z,32.70
2018-12-12T13:36:53.396Z,33.80
2018-12-12T13:39:22.131Z,32.57
2018-12-12T13:41:50.652Z,35.73
2018-12-12T13:44:19.403Z,38.57
2018-12-12T13:46:47.908Z,37.13
2018-12-12T13:49:16.410Z,36.03
2018-12-12T13:51:45.152Z,36.87
2018-12-12T13:54:13.703Z,32.90
2018-12-12T13:56:42.194Z,31.87
2018-12-12T13:59:10.716Z,31.47
2018-12-12T14:01:39.559Z,33.40
2018-12-12T14:04:08.072Z,34.00
2018-12-12T14:06:36.586Z,31.33
2018-12-12T14:09:06.962Z,32.93
2018-12-12T14:11:35.660Z,34.83
2018-12-12T14:14:04.290Z,35.17
2018-12-12T14:16:32.763Z,35.63
2018-12-12T14:19:01.287Z,34.67
2018-12-12T14:21:30.015Z,37.70
2018-12-12T14:23:58.513Z,37.80
2018-12-12T14:26:27.364Z,37.83
2018-12-12T14:28:55.987Z,37.70
2018-12-12T14:31:24.656Z,35.23
2018-12-12T14:33:53.221Z,39.60
2018-12-12T14:36:21.667Z,41.50
2018-12-12T14:38:50.182Z,39.93
2018-12-12T14:41:18.715Z,36.30
2018-12-12T14:43:47.348Z,42.93
2018-12-12T14:46:17.350Z,45.37
2018-12-12T14:48:45.922Z,44.20
2018-12-12T14:51:14.386Z,43.37
2018-12-12T14:53:43.113Z,48.17
2018-12-12T14:56:11.569Z,54.67
2018-12-12T14:58:40.069Z,51.87
2018-12-12T15:01:08.552Z,50.63
2018-12-12T15:03:37.081Z,45.07
2018-12-12T15:06:05.584Z,47.03
2018-12-12T15:08:34.095Z,83.60
2018-12-12T15:11:02.659Z,76.23
2018-12-12T15:13:31.132Z,71.00
2018-12-12T15:15:59.624Z,60.80
2018-12-12T15:18:28.119Z,49.27
2018-12-12T15:20:56.570Z,50.20
2018-12-12T15:23:25.042Z,54.27
2018-12-12T15:25:53.514Z,50.13
2018-12-12T15:28:21.965Z,51.57
2018-12-12T15:30:50.681Z,49.37
2018-12-12T15:33:19.434Z,48.77
2018-12-12T15:35:47.918Z,49.00
2018-12-12T15:38:16.520Z,44.97
2018-12-12T15:40:44.954Z,47.20
2018-12-12T15:43:13.395Z,47.53
2018-12-12T15:45:41.858Z,49.80
2018-12-12T15:48:10.617Z,50.03
2018-12-12T15:50:39.130Z,47.63
2018-12-12T15:53:08.177Z,47.30
2018-12-12T15:55:36.894Z,42.87
2018-12-12T15:58:05.489Z,42.67
2018-12-12T16:00:34.129Z,42.80
2018-12-12T16:03:02.758Z,46.87
2018-12-12T16:05:31.218Z,46.40
2018-12-12T16:07:59.760Z,50.27
2018-12-12T16:10:28.483Z,43.63
2018-12-12T16:12:57.065Z,45.43
2018-12-12T16:15:25.563Z,48.47
2018-12-12T16:17:54.036Z,48.00
2018-12-12T16:20:22.516Z,47.23
2018-12-12T16:22:51.192Z,48.73
2018-12-12T16:25:19.754Z,53.03
2018-12-12T16:27:48.208Z,85.70
2018-12-12T16:30:16.839Z,57.13
2018-12-12T16:32:45.306Z,50.43
2018-12-12T16:35:13.924Z,49.93
2018-12-12T16:37:42.393Z,50.87
2018-12-12T16:40:11.035Z,55.50
2018-12-12T16:42:39.754Z,52.40
2018-12-12T16:45:08.747Z,50.03
2018-12-12T16:47:37.228Z,48.57
2018-12-12T16:50:07.023Z,48.53
2018-12-12T16:52:35.659Z,48.00
2018-12-12T16:55:04.719Z,48.93
2018-12-12T16:57:33.185Z,47.63
2018-12-12T17:00:01.682Z,47.30
2018-12-12T17:02:30.174Z,47.87
2018-12-12T17:05:02.263Z,48.03
2018-12-12T17:07:29.251Z,44.30
2018-12-12T17:09:58.060Z,45.17
2018-12-12T17:12:26.547Z,44.97
2018-12-12T17:14:55.074Z,44.27
2018-12-12T17:17:23.554Z,45.40
2018-12-12T17:19:52.107Z,46.10
2018-12-12T17:22:20.602Z,49.53
2018-12-12T17:24:49.027Z,48.80
2018-12-12T17:27:17.595Z,52.63
2018-12-12T17:29:46.093Z,57.43
2018-12-12T17:32:14.615Z,59.80
2018-12-12T17:34:43.099Z,58.83
2018-12-12T17:37:11.605Z,55.97
2018-12-12T17:39:40.099Z,56.07
2018-12-12T17:42:08.575Z,60.87
2018-12-12T17:44:37.020Z,56.43
2018-12-12T17:47:06.134Z,57.23
2018-12-12T17:49:34.607Z,65.17
2018-12-12T17:52:03.348Z,67.90
2018-12-12T17:54:32.005Z,68.67
2018-12-12T17:57:00.504Z,65.07
2018-12-12T17:59:28.996Z,73.87
2018-12-12T18:01:57.612Z,72.73
2018-12-12T18:04:26.208Z,78.60
2018-12-12T18:06:54.667Z,75.83
2018-12-12T18:09:23.123Z,81.27
2018-12-12T18:11:51.595Z,82.57
2018-12-12T18:14:21.020Z,80.47
2018-12-12T18:16:49.527Z,73.90
2018-12-12T18:19:18.044Z,78.33
2018-12-12T18:21:46.563Z,90.77
2018-12-12T18:24:15.032Z,81.83
2018-12-12T18:26:43.500Z,89.27
2018-12-12T18:29:12.351Z,93.53
2018-12-12T18:31:41.106Z,100.90
2018-12-12T18:34:09.876Z,94.03
2018-12-12T18:36:38.385Z,96.60
2018-12-12T18:39:08.199Z,102.80
2018-12-12T18:41:36.693Z,90.00
2018-12-12T18:44:05.251Z,88.77
2018-12-12T18:46:33.961Z,80.57
2018-12-12T18:49:02.453Z,78.23
2018-12-12T18:51:31.131Z,80.73
2018-12-12T18:53:59.665Z,85.07
2018-12-12T18:56:28.110Z,87.17
2018-12-12T18:58:56.607Z,86.40
2018-12-12T19:01:25.149Z,77.27
2018-12-12T19:03:54.085Z,71.03
2018-12-12T19:06:22.655Z,52.77
2018-12-12T19:08:51.329Z,58.10
2018-12-12T19:11:19.838Z,51.10
2018-12-12T19:13:48.364Z,40.17
2018-12-12T19:16:17.144Z,39.57
2018-12-12T19:18:45.691Z,40.03
2018-12-12T19:21:14.244Z,38.27
2018-12-12T19:23:43.304Z,33.43
2018-12-12T19:26:11.758Z,31.53
2018-12-12T19:28:40.255Z,40.13
2018-12-12T19:31:08.989Z,40.63
2018-12-12T19:33:37.582Z,38.90
2018-12-12T19:36:06.116Z,40.57
2018-12-12T19:38:34.754Z,42.37
2018-12-12T19:41:03.231Z,43.53
2018-12-12T19:43:32.890Z,49.80
2018-12-12T19:46:01.804Z,47.87
2018-12-12T19:48:30.306Z,48.17
2018-12-12T19:50:59.048Z,54.20
2018-12-12T19:53:28.896Z,85.63
2018-12-12T19:55:57.703Z,79.17
2018-12-12T19:58:26.376Z,55.57
2018-12-12T20:00:55.637Z,48.37
2018-12-12T20:03:25.012Z,33.90
2018-12-12T20:05:53.675Z,29.80
2018-12-12T20:08:22.163Z,30.43
2018-12-12T20:10:50.928Z,32.63
2018-12-12T20:13:19.778Z,34.93
2018-12-12T20:15:48.669Z,37.63
2018-12-12T20:18:17.570Z,33.27
2018-12-12T20:20:47.780Z,37.90
2018-12-12T20:23:16.317Z,33.03
2018-12-12T20:25:44.868Z,36.60
2018-12-12T20:28:13.746Z,36.87
2018-12-12T20:30:42.524Z,32.03
2018-12-12T20:33:11.228Z,33.00
2018-12-12T20:35:39.816Z,35.87
2018-12-12T20:38:12.621Z,31.70
2018-12-12T20:40:41.470Z,32.90
2018-12-12T20:43:09.995Z,31.67
2018-12-12T20:45:38.547Z,31.83
2018-12-12T20:48:07.445Z,31.37
2018-12-12T20:50:36.060Z,32.93
2018-12-12T20:53:04.792Z,31.83
2018-12-12T20:55:33.582Z,30.90
2018-12-12T20:58:02.118Z,30.27
2018-12-12T21:00:30.650Z,32.00
2018-12-12T21:02:59.192Z,30.77
2018-12-12T21:05:27.716Z,33.03
2018-12-12T21:07:56.268Z,28.90
2018-12-12T21:10:24.930Z,25.23
2018-12-12T21:12:53.454Z,24.47
2018-12-12T21:15:22.248Z,23.77
2018-12-12T21:17:50.807Z,25.70
2018-12-12T21:20:19.401Z,24.17
2018-12-12T21:22:48.149Z,27.50
2018-12-12T21:25:16.886Z,26.53
2018-12-12T21:27:45.624Z,28.60
2018-12-12T21:30:17.203Z,28.47
2018-12-12T21:32:44.903Z,27.83
2018-12-12T21:35:13.634Z,27.83
2018-12-12T21:37:49.483Z,28.63
2018-12-12T21:40:18.014Z,27.33
2018-12-12T21:42:46.667Z,28.57
2018-12-12T21:45:15.595Z,25.60
2018-12-12T21:47:44.092Z,25.80
2018-12-12T21:50:12.663Z,27.13
2018-12-12T21:52:41.416Z,28.40
2018-12-12T21:55:09.996Z,28.47
2018-12-12T21:57:38.915Z,28.77
2018-12-12T22:00:09.618Z,30.73
2018-12-12T22:02:38.334Z,29.80
2018-12-12T22:05:08.137Z,28.23
2018-12-12T22:07:36.975Z,26.87
2018-12-12T22:10:06.599Z,27.67
2018-12-12T22:12:35.333Z,27.23
2018-12-12T22:15:05.154Z,28.73
2018-12-12T22:17:34.039Z,28.90
2018-12-12T22:20:02.940Z,27.30
2018-12-12T22:22:31.557Z,31.40
2018-12-12T22:25:00.285Z,33.67
2018-12-12T22:27:29.701Z,34.87
2018-12-12T22:29:59.381Z,33.97
2018-12-12T22:32:35.888Z,33.53
2018-12-12T22:35:06.203Z,32.43
2018-12-12T22:37:35.984Z,28.67
2018-12-12T22:40:05.965Z,27.47
2018-12-12T22:42:35.529Z,28.27
2018-12-12T22:45:09.860Z,28.77
2018-12-12T22:47:39.114Z,28.43
2018-12-12T22:50:10.459Z,28.00
2018-12-12T22:52:40.007Z,27.50
2018-12-12T22:55:10.328Z,27.63
2018-12-12T22:57:41.063Z,28.83
2018-12-12T23:00:14.882Z,30.67
2018-12-12T23:06:20.420Z,27.63
2018-12-12T23:08:46.653Z,28.63
2018-12-12T23:11:15.844Z,27.70
2018-12-12T23:13:44.981Z,28.23
2018-12-12T23:16:13.927Z,30.60
2018-12-12T23:18:42.764Z,28.50
2018-12-12T23:21:11.358Z,29.80
2018-12-12T23:23:40.570Z,31.83
2018-12-12T23:26:09.343Z,31.80
2018-12-12T23:28:37.914Z,31.47
2018-12-12T23:31:06.626Z,30.93
2018-12-12T23:33:35.306Z,30.97
2018-12-12T23:36:03.999Z,32.80
2018-12-12T23:38:32.686Z,30.30
2018-12-12T23:41:01.603Z,32.83
2018-12-12T23:43:30.391Z,31.10
2018-12-12T23:45:58.929Z,31.33
2018-12-12T23:48:27.453Z,31.23
2018-12-12T23:50:55.961Z,30.97
2018-12-12T23:53:24.577Z,30.87
2018-12-12T23:55:53.233Z,32.37
2018-12-12T23:58:21.993Z,32.47
